sensor_id;sensor_type;location;lat;lon;timestamp;pressure;altitude;pressure_sealevel;temperature;humidity
68871;BME280;55906;52.278;6.808;2023-02-14T00:01:15;103416.44;;;5.18;76.52
68871;BME280;55906;52.278;6.808;2023-02-14T00:03:41;103426.88;;;5.18;76.81
68871;BME280;55906;52.278;6.808;2023-02-14T00:06:10;103426.09;;;5.19;76.21
68871;BME280;55906;52.278;6.808;2023-02-14T00:08:37;103422.69;;;5.20;76.45
68871;BME280;55906;52.278;6.808;2023-02-14T00:11:05;103422.69;;;5.20;76.55
68871;BME280;55906;52.278;6.808;2023-02-14T00:13:32;103420.09;;;5.20;76.14
68871;BME280;55906;52.278;6.808;2023-02-14T00:16:00;103426.25;;;5.20;76.46
68871;BME280;55906;52.278;6.808;2023-02-14T00:18:27;103415.03;;;5.21;76.31
68871;BME280;55906;52.278;6.808;2023-02-14T00:21:08;103415.94;;;5.22;77.66
68871;BME280;55906;52.278;6.808;2023-02-14T00:23:34;103407.34;;;5.23;77.04
68871;BME280;55906;52.278;6.808;2023-02-14T00:26:01;103406.56;;;5.24;76.73
68871;BME280;55906;52.278;6.808;2023-02-14T00:28:27;103406.69;;;5.25;77.47
68871;BME280;55906;52.278;6.808;2023-02-14T00:30:55;103412.69;;;5.24;76.44
68871;BME280;55906;52.278;6.808;2023-02-14T00:33:23;103409.97;;;5.23;76.03
68871;BME280;55906;52.278;6.808;2023-02-14T00:35:50;103411.50;;;5.21;76.42
68871;BME280;55906;52.278;6.808;2023-02-14T00:38:16;103404.16;;;5.17;76.51
68871;BME280;55906;52.278;6.808;2023-02-14T00:40:43;103410.03;;;5.14;76.99
68871;BME280;55906;52.278;6.808;2023-02-14T00:43:09;103405.19;;;5.08;76.73
68871;BME280;55906;52.278;6.808;2023-02-14T00:45:36;103410.13;;;5.05;76.30
68871;BME280;55906;52.278;6.808;2023-02-14T00:48:03;103407.25;;;5.02;77.32
68871;BME280;55906;52.278;6.808;2023-02-14T00:50:31;103411.41;;;5.00;76.59
68871;BME280;55906;52.278;6.808;2023-02-14T00:52:57;103411.78;;;4.95;76.90
68871;BME280;55906;52.278;6.808;2023-02-14T00:55:24;103414.25;;;4.93;76.78
68871;BME280;55906;52.278;6.808;2023-02-14T00:57:51;103414.75;;;4.89;77.96
68871;BME280;55906;52.278;6.808;2023-02-14T01:00:18;103425.03;;;4.88;77.61
68871;BME280;55906;52.278;6.808;2023-02-14T01:02:45;103416.94;;;4.85;77.41
68871;BME280;55906;52.278;6.808;2023-02-14T01:05:11;103421.88;;;4.81;77.32
68871;BME280;55906;52.278;6.808;2023-02-14T01:07:39;103426.97;;;4.80;77.65
68871;BME280;55906;52.278;6.808;2023-02-14T01:10:06;103427.75;;;4.79;77.40
68871;BME280;55906;52.278;6.808;2023-02-14T01:12:33;103434.50;;;4.77;76.91
68871;BME280;55906;52.278;6.808;2023-02-14T01:14:59;103424.56;;;4.73;77.28
68871;BME280;55906;52.278;6.808;2023-02-14T01:17:26;103418.31;;;4.71;77.21
68871;BME280;55906;52.278;6.808;2023-02-14T01:19:53;103419.88;;;4.69;77.19
68871;BME280;55906;52.278;6.808;2023-02-14T01:22:20;103414.88;;;4.62;77.29
68871;BME280;55906;52.278;6.808;2023-02-14T01:24:48;103419.66;;;4.57;77.10
68871;BME280;55906;52.278;6.808;2023-02-14T01:27:14;103424.59;;;4.54;77.02
68871;BME280;55906;52.278;6.808;2023-02-14T01:29:41;103423.25;;;4.49;77.13
68871;BME280;55906;52.278;6.808;2023-02-14T01:32:07;103418.69;;;4.46;77.73
68871;BME280;55906;52.278;6.808;2023-02-14T01:34:34;103416.44;;;4.41;77.66
68871;BME280;55906;52.278;6.808;2023-02-14T01:37:00;103416.44;;;4.41;78.01
68871;BME280;55906;52.278;6.808;2023-02-14T01:39:27;103424.13;;;4.39;77.70
68871;BME280;55906;52.278;6.808;2023-02-14T01:41:55;103426.72;;;4.39;77.30
68871;BME280;55906;52.278;6.808;2023-02-14T01:44:55;103432.72;;;4.38;78.10
68871;BME280;55906;52.278;6.808;2023-02-14T01:47:22;103433.19;;;4.34;77.67
68871;BME280;55906;52.278;6.808;2023-02-14T01:49:52;103427.06;;;4.34;77.85
68871;BME280;55906;52.278;6.808;2023-02-14T01:52:22;103418.84;;;4.29;78.13
68871;BME280;55906;52.278;6.808;2023-02-14T01:54:54;103425.59;;;4.27;77.84
68871;BME280;55906;52.278;6.808;2023-02-14T01:57:26;103421.00;;;4.25;78.08
68871;BME280;55906;52.278;6.808;2023-02-14T01:59:57;103422.56;;;4.23;77.81
68871;BME280;55906;52.278;6.808;2023-02-14T02:02:44;103423.97;;;4.19;77.98
68871;BME280;55906;52.278;6.808;2023-02-14T02:05:12;103420.31;;;4.17;77.73
68871;BME280;55906;52.278;6.808;2023-02-14T02:07:39;103410.38;;;4.13;78.20
68871;BME280;55906;52.278;6.808;2023-02-14T02:10:08;103419.59;;;4.09;78.20
68871;BME280;55906;52.278;6.808;2023-02-14T02:12:36;103417.63;;;4.07;77.79
68871;BME280;55906;52.278;6.808;2023-02-14T02:15:04;103415.66;;;4.04;78.56
68871;BME280;55906;52.278;6.808;2023-02-14T02:17:38;103412.91;;;4.03;78.58
68871;BME280;55906;52.278;6.808;2023-02-14T02:20:27;103414.44;;;4.01;78.76
68871;BME280;55906;52.278;6.808;2023-02-14T02:26:23;103412.63;;;4.00;78.44
68871;BME280;55906;52.278;6.808;2023-02-14T02:32:25;103406.84;;;3.94;78.87
68871;BME280;55906;52.278;6.808;2023-02-14T02:35:11;103410.84;;;3.90;78.71
68871;BME280;55906;52.278;6.808;2023-02-14T02:37:47;103391.53;;;3.88;78.33
68871;BME280;55906;52.278;6.808;2023-02-14T02:40:26;103391.38;;;3.86;78.51
68871;BME280;55906;52.278;6.808;2023-02-14T02:43:02;103386.66;;;3.82;78.33
68871;BME280;55906;52.278;6.808;2023-02-14T02:45:40;103393.41;;;3.80;78.53
68871;BME280;55906;52.278;6.808;2023-02-14T02:48:25;103385.03;;;3.74;78.54
68871;BME280;55906;52.278;6.808;2023-02-14T02:50:57;103390.38;;;3.76;78.43
68871;BME280;55906;52.278;6.808;2023-02-14T02:53:44;103389.19;;;3.72;78.74
68871;BME280;55906;52.278;6.808;2023-02-14T02:56:16;103384.75;;;3.71;78.56
68871;BME280;55906;52.278;6.808;2023-02-14T02:59:04;103378.47;;;3.69;78.89
68871;BME280;55906;52.278;6.808;2023-02-14T03:01:45;103389.81;;;3.70;78.52
68871;BME280;55906;52.278;6.808;2023-02-14T03:04:15;103384.44;;;3.68;79.20
68871;BME280;55906;52.278;6.808;2023-02-14T03:07:09;103382.63;;;3.67;78.82
68871;BME280;55906;52.278;6.808;2023-02-14T03:09:55;103379.72;;;3.64;78.49
68871;BME280;55906;52.278;6.808;2023-02-14T03:12:50;103376.06;;;3.62;78.87
68871;BME280;55906;52.278;6.808;2023-02-14T03:15:27;103379.94;;;3.57;78.78
68871;BME280;55906;52.278;6.808;2023-02-14T03:18:05;103378.72;;;3.53;78.76
68871;BME280;55906;52.278;6.808;2023-02-14T03:20:45;103381.94;;;3.51;79.11
68871;BME280;55906;52.278;6.808;2023-02-14T03:23:19;103375.53;;;3.47;79.40
68871;BME280;55906;52.278;6.808;2023-02-14T03:25:54;103379.81;;;3.47;79.22
68871;BME280;55906;52.278;6.808;2023-02-14T03:28:29;103378.63;;;3.43;79.76
68871;BME280;55906;52.278;6.808;2023-02-14T03:31:03;103353.22;;;3.41;79.21
68871;BME280;55906;52.278;6.808;2023-02-14T03:33:36;103356.47;;;3.38;79.50
68871;BME280;55906;52.278;6.808;2023-02-14T03:36:11;103355.41;;;3.36;79.28
68871;BME280;55906;52.278;6.808;2023-02-14T03:38:44;103354.47;;;3.36;79.95
68871;BME280;55906;52.278;6.808;2023-02-14T03:41:13;103351.59;;;3.33;79.55
68871;BME280;55906;52.278;6.808;2023-02-14T03:43:47;103351.59;;;3.33;79.81
68871;BME280;55906;52.278;6.808;2023-02-14T03:46:17;103348.69;;;3.30;79.98
68871;BME280;55906;52.278;6.808;2023-02-14T03:48:46;103354.97;;;3.32;79.81
68871;BME280;55906;52.278;6.808;2023-02-14T03:51:14;103348.69;;;3.30;79.76
68871;BME280;55906;52.278;6.808;2023-02-14T03:53:46;103351.44;;;3.31;79.92
68871;BME280;55906;52.278;6.808;2023-02-14T03:56:18;103348.84;;;3.31;79.87
68871;BME280;55906;52.278;6.808;2023-02-14T03:58:49;103347.44;;;3.35;78.87
68871;BME280;55906;52.278;6.808;2023-02-14T04:01:20;103349.63;;;3.30;79.67
68871;BME280;55906;52.278;6.808;2023-02-14T04:03:49;103350.09;;;3.26;79.27
68871;BME280;55906;52.278;6.808;2023-02-14T04:06:18;103344.44;;;3.21;79.67
68871;BME280;55906;52.278;6.808;2023-02-14T04:08:46;103353.03;;;3.20;79.50
68871;BME280;55906;52.278;6.808;2023-02-14T04:11:13;103345.22;;;3.20;79.54
68871;BME280;55906;52.278;6.808;2023-02-14T04:13:39;103354.56;;;3.18;79.44
68871;BME280;55906;52.278;6.808;2023-02-14T04:16:07;103353.50;;;3.16;79.32
68871;BME280;55906;52.278;6.808;2023-02-14T04:18:33;103349.56;;;3.11;79.60
68871;BME280;55906;52.278;6.808;2023-02-14T04:21:18;103347.72;;;3.10;80.25
68871;BME280;55906;52.278;6.808;2023-02-14T04:23:46;103345.88;;;3.09;79.67
68871;BME280;55906;52.278;6.808;2023-02-14T04:26:12;103344.97;;;3.09;79.59
68871;BME280;55906;52.278;6.808;2023-02-14T04:28:39;103350.03;;;3.07;80.03
68871;BME280;55906;52.278;6.808;2023-02-14T04:31:06;103348.34;;;3.08;80.09
68871;BME280;55906;52.278;6.808;2023-02-14T04:33:34;103344.06;;;3.08;79.35
68871;BME280;55906;52.278;6.808;2023-02-14T04:36:01;103346.66;;;3.08;79.51
68871;BME280;55906;52.278;6.808;2023-02-14T04:38:27;103343.13;;;3.08;80.29
68871;BME280;55906;52.278;6.808;2023-02-14T04:40:55;103333.66;;;3.08;79.99
68871;BME280;55906;52.278;6.808;2023-02-14T04:43:22;103341.47;;;3.08;79.49
68871;BME280;55906;52.278;6.808;2023-02-14T04:45:48;103334.44;;;3.07;79.26
68871;BME280;55906;52.278;6.808;2023-02-14T04:48:15;103329.22;;;3.07;79.60
68871;BME280;55906;52.278;6.808;2023-02-14T04:50:42;103327.69;;;3.09;80.20
68871;BME280;55906;52.278;6.808;2023-02-14T04:53:08;103328.44;;;3.08;79.98
68871;BME280;55906;52.278;6.808;2023-02-14T04:55:35;103325.84;;;3.08;80.12
68871;BME280;55906;52.278;6.808;2023-02-14T04:58:03;103314.69;;;3.09;79.77
68871;BME280;55906;52.278;6.808;2023-02-14T05:00:30;103324.31;;;3.10;80.19
68871;BME280;55906;52.278;6.808;2023-02-14T05:02:57;103321.88;;;3.12;80.38
68871;BME280;55906;52.278;6.808;2023-02-14T05:05:23;103318.50;;;3.13;80.33
68871;BME280;55906;52.278;6.808;2023-02-14T05:07:50;103320.94;;;3.11;80.39
68871;BME280;55906;52.278;6.808;2023-02-14T05:10:17;103317.44;;;3.11;80.52
68871;BME280;55906;52.278;6.808;2023-02-14T05:12:43;103318.19;;;3.10;81.11
68871;BME280;55906;52.278;6.808;2023-02-14T05:15:11;103312.38;;;3.12;80.18
68871;BME280;55906;52.278;6.808;2023-02-14T05:17:38;103314.84;;;3.11;80.71
68871;BME280;55906;52.278;6.808;2023-02-14T05:20:06;103319.88;;;3.09;80.82
68871;BME280;55906;52.278;6.808;2023-02-14T05:22:33;103313.91;;;3.10;80.71
68871;BME280;55906;52.278;6.808;2023-02-14T05:24:59;103317.00;;;3.06;80.37
68871;BME280;55906;52.278;6.808;2023-02-14T05:27:26;103320.38;;;3.05;79.91
68871;BME280;55906;52.278;6.808;2023-02-14T05:29:52;103316.69;;;3.03;80.78
68871;BME280;55906;52.278;6.808;2023-02-14T05:32:20;103318.25;;;3.01;79.99
68871;BME280;55906;52.278;6.808;2023-02-14T05:34:47;103310.78;;;2.96;80.46
68871;BME280;55906;52.278;6.808;2023-02-14T05:37:14;103322.84;;;2.95;79.85
68871;BME280;55906;52.278;6.808;2023-02-14T05:39:40;103328.06;;;2.95;80.20
68871;BME280;55906;52.278;6.808;2023-02-14T05:42:07;103317.50;;;2.94;79.92
68871;BME280;55906;52.278;6.808;2023-02-14T05:44:33;103315.53;;;2.91;80.10
68871;BME280;55906;52.278;6.808;2023-02-14T05:47:00;103311.88;;;2.89;79.67
68871;BME280;55906;52.278;6.808;2023-02-14T05:49:28;103310.03;;;2.88;80.35
68871;BME280;55906;52.278;6.808;2023-02-14T05:51:55;103314.03;;;2.84;80.34
68871;BME280;55906;52.278;6.808;2023-02-14T05:54:21;103316.47;;;2.83;80.41
68871;BME280;55906;52.278;6.808;2023-02-14T05:56:48;103311.28;;;2.83;79.93
68871;BME280;55906;52.278;6.808;2023-02-14T05:59:14;103313.88;;;2.83;79.89
68871;BME280;55906;52.278;6.808;2023-02-14T06:01:41;103314.66;;;2.82;80.75
68871;BME280;55906;52.278;6.808;2023-02-14T06:04:07;103311.28;;;2.83;80.03
68871;BME280;55906;52.278;6.808;2023-02-14T06:06:35;103312.97;;;2.82;81.02
68871;BME280;55906;52.278;6.808;2023-02-14T06:09:02;103309.44;;;2.82;80.85
68871;BME280;55906;52.278;6.808;2023-02-14T06:11:29;103313.59;;;2.80;81.17
68871;BME280;55906;52.278;6.808;2023-02-14T06:13:55;103316.19;;;2.80;80.76
68871;BME280;55906;52.278;6.808;2023-02-14T06:16:22;103314.06;;;2.76;80.32
68871;BME280;55906;52.278;6.808;2023-02-14T06:18:49;103313.75;;;2.73;81.03
68871;BME280;55906;52.278;6.808;2023-02-14T06:21:15;103325.84;;;2.72;80.24
68871;BME280;55906;52.278;6.808;2023-02-14T06:23:43;103326.59;;;2.71;80.98
68871;BME280;55906;52.278;6.808;2023-02-14T06:26:10;103331.66;;;2.70;80.39
68871;BME280;55906;52.278;6.808;2023-02-14T06:28:37;103335.00;;;2.69;80.57
68871;BME280;55906;52.278;6.808;2023-02-14T06:31:04;103329.53;;;2.66;80.82
68871;BME280;55906;52.278;6.808;2023-02-14T06:33:30;103328.59;;;2.65;81.00
68871;BME280;55906;52.278;6.808;2023-02-14T06:35:57;103337.31;;;2.66;81.06
68871;BME280;55906;52.278;6.808;2023-02-14T06:38:24;103335.34;;;2.63;81.02
68871;BME280;55906;52.278;6.808;2023-02-14T06:40:51;103333.66;;;2.64;80.10
68871;BME280;55906;52.278;6.808;2023-02-14T06:43:18;103337.94;;;2.63;80.43
68871;BME280;55906;52.278;6.808;2023-02-14T06:45:45;103331.50;;;2.60;79.59
68871;BME280;55906;52.278;6.808;2023-02-14T06:48:12;103343.56;;;2.59;80.13
68871;BME280;55906;52.278;6.808;2023-02-14T06:50:38;103340.06;;;2.58;80.00
68871;BME280;55906;52.278;6.808;2023-02-14T06:53:05;103334.84;;;2.58;80.74
68871;BME280;55906;52.278;6.808;2023-02-14T06:55:31;103337.63;;;2.60;80.30
68871;BME280;55906;52.278;6.808;2023-02-14T06:57:59;103346.50;;;2.62;81.05
68871;BME280;55906;52.278;6.808;2023-02-14T07:00:26;103344.19;;;2.65;81.14
68871;BME280;55906;52.278;6.808;2023-02-14T07:02:53;103337.31;;;2.66;80.49
68871;BME280;55906;52.278;6.808;2023-02-14T07:05:20;103339.31;;;2.68;81.01
68871;BME280;55906;52.278;6.808;2023-02-14T07:07:47;103340.50;;;2.72;80.92
68871;BME280;55906;52.278;6.808;2023-02-14T07:10:13;103342.50;;;2.74;81.51
68871;BME280;55906;52.278;6.808;2023-02-14T07:12:40;103344.63;;;2.78;81.75
68871;BME280;55906;52.278;6.808;2023-02-14T07:15:10;103347.66;;;2.83;81.51
68871;BME280;55906;52.278;6.808;2023-02-14T07:17:38;103338.47;;;2.86;81.81
68871;BME280;55906;52.278;6.808;2023-02-14T07:20:06;103335.56;;;2.92;81.53
68871;BME280;55906;52.278;6.808;2023-02-14T07:22:33;103335.53;;;3.01;80.83
68871;BME280;55906;52.278;6.808;2023-02-14T07:25:00;103333.66;;;3.08;80.93
68871;BME280;55906;52.278;6.808;2023-02-14T07:27:27;103335.31;;;3.16;81.04
68871;BME280;55906;52.278;6.808;2023-02-14T07:29:53;103339.84;;;3.28;81.07
68871;BME280;55906;52.278;6.808;2023-02-14T07:32:22;103337.75;;;3.70;80.73
68871;BME280;55906;52.278;6.808;2023-02-14T07:34:48;103333.91;;;4.31;78.98
68871;BME280;55906;52.278;6.808;2023-02-14T07:37:15;103321.75;;;4.79;77.27
68871;BME280;55906;52.278;6.808;2023-02-14T07:39:42;103329.97;;;5.23;76.43
68871;BME280;55906;52.278;6.808;2023-02-14T07:42:08;103329.22;;;5.65;76.46
68871;BME280;55906;52.278;6.808;2023-02-14T07:44:35;103330.56;;;6.00;74.92
68871;BME280;55906;52.278;6.808;2023-02-14T07:47:03;103331.78;;;6.36;74.30
68871;BME280;55906;52.278;6.808;2023-02-14T07:49:31;103327.75;;;6.71;75.22
68871;BME280;55906;52.278;6.808;2023-02-14T07:51:57;103325.00;;;7.02;74.12
68871;BME280;55906;52.278;6.808;2023-02-14T07:54:24;103319.56;;;7.32;73.46
68871;BME280;55906;52.278;6.808;2023-02-14T07:56:51;103319.66;;;7.67;73.44
68871;BME280;55906;52.278;6.808;2023-02-14T07:59:17;103328.78;;;8.06;72.02
68871;BME280;55906;52.278;6.808;2023-02-14T08:01:44;103333.03;;;8.39;72.11
68871;BME280;55906;52.278;6.808;2023-02-14T08:04:11;103324.91;;;8.71;73.47
68871;BME280;55906;52.278;6.808;2023-02-14T08:06:40;103325.66;;;8.93;72.91
68871;BME280;55906;52.278;6.808;2023-02-14T08:09:07;103329.16;;;9.17;72.96
68871;BME280;55906;52.278;6.808;2023-02-14T08:11:34;103331.81;;;9.42;71.91
68871;BME280;55906;52.278;6.808;2023-02-14T08:14:18;103330.72;;;9.77;72.75
68871;BME280;55906;52.278;6.808;2023-02-14T08:16:45;103333.72;;;10.08;71.43
68871;BME280;55906;52.278;6.808;2023-02-14T08:19:12;103327.91;;;10.38;71.20
68871;BME280;55906;52.278;6.808;2023-02-14T08:21:40;103336.34;;;10.59;71.85
68871;BME280;55906;52.278;6.808;2023-02-14T08:24:06;103326.69;;;10.73;70.53
68871;BME280;55906;52.278;6.808;2023-02-14T08:26:33;103336.09;;;10.82;69.43
68871;BME280;55906;52.278;6.808;2023-02-14T08:29:00;103331.19;;;11.02;68.87
68871;BME280;55906;52.278;6.808;2023-02-14T08:31:30;103332.97;;;11.16;63.80
68871;BME280;55906;52.278;6.808;2023-02-14T08:33:57;103321.66;;;11.04;63.19
68871;BME280;55906;52.278;6.808;2023-02-14T08:36:23;103324.72;;;10.97;62.74
68871;BME280;55906;52.278;6.808;2023-02-14T08:38:51;103320.63;;;11.15;63.50
68871;BME280;55906;52.278;6.808;2023-02-14T08:41:19;103315.78;;;11.08;61.52
68871;BME280;55906;52.278;6.808;2023-02-14T08:43:46;103328.53;;;11.15;61.53
68871;BME280;55906;52.278;6.808;2023-02-14T08:46:12;103315.63;;;11.47;62.25
68871;BME280;55906;52.278;6.808;2023-02-14T08:48:41;103328.28;;;11.53;60.51
68871;BME280;55906;52.278;6.808;2023-02-14T08:51:09;103322.34;;;11.42;60.29
68871;BME280;55906;52.278;6.808;2023-02-14T08:53:36;103320.03;;;11.62;59.34
68871;BME280;55906;52.278;6.808;2023-02-14T08:56:07;103316.66;;;11.64;58.75
68871;BME280;55906;52.278;6.808;2023-02-14T08:58:34;103322.47;;;11.87;59.09
68871;BME280;55906;52.278;6.808;2023-02-14T09:01:07;103327.03;;;11.89;58.03
68871;BME280;55906;52.278;6.808;2023-02-14T09:03:33;103333.50;;;11.94;58.48
68871;BME280;55906;52.278;6.808;2023-02-14T09:06:02;103327.03;;;11.89;56.98
68871;BME280;55906;52.278;6.808;2023-02-14T09:08:28;103320.75;;;12.02;57.45
68871;BME280;55906;52.278;6.808;2023-02-14T09:10:56;103321.56;;;12.15;57.03
68871;BME280;55906;52.278;6.808;2023-02-14T09:13:23;103315.50;;;12.62;56.91
68871;BME280;55906;52.278;6.808;2023-02-14T09:15:50;103317.88;;;12.89;56.74
68871;BME280;55906;52.278;6.808;2023-02-14T09:18:17;103317.91;;;12.74;55.79
68871;BME280;55906;52.278;6.808;2023-02-14T09:20:43;103316.44;;;13.10;55.57
68871;BME280;55906;52.278;6.808;2023-02-14T09:23:10;103315.81;;;13.47;54.42
68871;BME280;55906;52.278;6.808;2023-02-14T09:25:37;103316.63;;;13.78;54.45
68871;BME280;55906;52.278;6.808;2023-02-14T09:28:04;103306.06;;;13.96;54.07
68871;BME280;55906;52.278;6.808;2023-02-14T09:30:32;103307.69;;;14.28;53.51
68871;BME280;55906;52.278;6.808;2023-02-14T09:32:58;103308.06;;;14.18;52.05
68871;BME280;55906;52.278;6.808;2023-02-14T09:35:28;103302.47;;;14.29;51.33
68871;BME280;55906;52.278;6.808;2023-02-14T09:37:55;103306.56;;;14.23;51.31
68871;BME280;55906;52.278;6.808;2023-02-14T09:40:39;103303.59;;;14.68;51.39
68871;BME280;55906;52.278;6.808;2023-02-14T09:43:08;103300.41;;;14.76;50.30
68871;BME280;55906;52.278;6.808;2023-02-14T09:45:40;103294.16;;;14.93;50.49
68871;BME280;55906;52.278;6.808;2023-02-14T09:48:11;103292.28;;;15.48;49.79
68871;BME280;55906;52.278;6.808;2023-02-14T09:50:43;103290.91;;;15.37;48.89
68871;BME280;55906;52.278;6.808;2023-02-14T09:53:19;103290.47;;;15.28;48.39
68871;BME280;55906;52.278;6.808;2023-02-14T09:55:53;103284.00;;;15.60;47.56
68871;BME280;55906;52.278;6.808;2023-02-14T09:58:25;103279.06;;;15.67;48.01
68871;BME280;55906;52.278;6.808;2023-02-14T10:00:59;103280.81;;;15.67;46.51
68871;BME280;55906;52.278;6.808;2023-02-14T10:03:41;103285.66;;;15.77;47.26
68871;BME280;55906;52.278;6.808;2023-02-14T10:06:18;103274.44;;;15.63;47.22
68871;BME280;55906;52.278;6.808;2023-02-14T10:08:55;103279.53;;;15.99;46.02
68871;BME280;55906;52.278;6.808;2023-02-14T10:11:24;103275.97;;;15.98;46.05
68871;BME280;55906;52.278;6.808;2023-02-14T10:13:55;103282.72;;;16.11;46.18
68871;BME280;55906;52.278;6.808;2023-02-14T10:16:27;103281.47;;;16.24;45.72
68871;BME280;55906;52.278;6.808;2023-02-14T10:18:59;103282.56;;;16.29;45.78
68871;BME280;55906;52.278;6.808;2023-02-14T10:21:31;103276.78;;;16.61;45.23
68871;BME280;55906;52.278;6.808;2023-02-14T10:24:03;103271.59;;;16.64;44.77
68871;BME280;55906;52.278;6.808;2023-02-14T10:26:37;103274.09;;;16.82;44.55
68871;BME280;55906;52.278;6.808;2023-02-14T10:29:10;103266.09;;;17.27;43.83
68871;BME280;55906;52.278;6.808;2023-02-14T10:31:43;103269.19;;;17.63;43.61
68871;BME280;55906;52.278;6.808;2023-02-14T10:34:21;103275.81;;;17.50;43.29
68871;BME280;55906;52.278;6.808;2023-02-14T10:36:58;103264.69;;;17.62;42.63
68871;BME280;55906;52.278;6.808;2023-02-14T10:42:28;103258.22;;;18.30;42.07
68871;BME280;55906;52.278;6.808;2023-02-14T10:45:08;103261.16;;;17.87;41.86
68871;BME280;55906;52.278;6.808;2023-02-14T10:47:44;103264.66;;;18.11;41.69
68871;BME280;55906;52.278;6.808;2023-02-14T10:50:17;103245.72;;;18.56;40.58
68871;BME280;55906;52.278;6.808;2023-02-14T10:52:51;103255.28;;;19.06;41.22
68871;BME280;55906;52.278;6.808;2023-02-14T10:55:26;103258.69;;;19.32;39.53
68871;BME280;55906;52.278;6.808;2023-02-14T10:58:00;103255.59;;;19.48;40.08
68871;BME280;55906;52.278;6.808;2023-02-14T11:00:31;103250.19;;;19.77;39.01
68871;BME280;55906;52.278;6.808;2023-02-14T11:03:02;103256.84;;;20.29;38.63
68871;BME280;55906;52.278;6.808;2023-02-14T11:05:33;103264.09;;;20.34;37.92
68871;BME280;55906;52.278;6.808;2023-02-14T11:08:05;103259.66;;;20.71;37.91
68871;BME280;55906;52.278;6.808;2023-02-14T11:10:37;103256.09;;;20.34;37.76
68871;BME280;55906;52.278;6.808;2023-02-14T11:13:29;103249.44;;;20.53;36.57
68871;BME280;55906;52.278;6.808;2023-02-14T11:15:59;103252.00;;;20.49;36.98
68871;BME280;55906;52.278;6.808;2023-02-14T11:18:28;103248.47;;;20.50;37.00
68871;BME280;55906;52.278;6.808;2023-02-14T11:21:09;103246.56;;;20.83;36.63
68871;BME280;55906;52.278;6.808;2023-02-14T11:23:38;103243.91;;;20.45;37.43
68871;BME280;55906;52.278;6.808;2023-02-14T11:26:10;103245.25;;;20.66;37.15
68871;BME280;55906;52.278;6.808;2023-02-14T11:28:50;103238.13;;;21.05;36.20
68871;BME280;55906;52.278;6.808;2023-02-14T11:31:29;103232.72;;;21.46;35.99
68871;BME280;55906;52.278;6.808;2023-02-14T11:33:59;103236.75;;;21.71;36.04
68871;BME280;55906;52.278;6.808;2023-02-14T11:36:28;103239.31;;;21.65;36.00
68871;BME280;55906;52.278;6.808;2023-02-14T11:39:01;103227.88;;;22.25;35.29
68871;BME280;55906;52.278;6.808;2023-02-14T11:41:45;103221.09;;;22.50;33.53
68871;BME280;55906;52.278;6.808;2023-02-14T11:44:15;103219.06;;;22.95;32.97
68871;BME280;55906;52.278;6.808;2023-02-14T11:46:46;103213.00;;;23.12;34.17
68871;BME280;55906;52.278;6.808;2023-02-14T11:49:25;103216.56;;;23.12;32.33
68871;BME280;55906;52.278;6.808;2023-02-14T11:51:54;103201.47;;;23.22;33.48
68871;BME280;55906;52.278;6.808;2023-02-14T11:54:31;103204.13;;;23.19;32.65
68871;BME280;55906;52.278;6.808;2023-02-14T11:57:05;103195.78;;;23.75;32.20
68871;BME280;55906;52.278;6.808;2023-02-14T11:59:36;103198.44;;;23.70;31.39
68871;BME280;55906;52.278;6.808;2023-02-14T12:02:23;103192.53;;;23.23;31.76
68871;BME280;55906;52.278;6.808;2023-02-14T12:04:54;103190.00;;;23.40;31.94
68871;BME280;55906;52.278;6.808;2023-02-14T12:07:25;103183.16;;;23.66;31.78
68871;BME280;55906;52.278;6.808;2023-02-14T12:10:17;103172.69;;;24.01;30.43
68871;BME280;55906;52.278;6.808;2023-02-14T12:12:53;103173.63;;;24.09;31.69
68871;BME280;55906;52.278;6.808;2023-02-14T12:15:27;103179.38;;;24.66;30.74
68871;BME280;55906;52.278;6.808;2023-02-14T12:17:59;103171.47;;;25.01;30.23
68871;BME280;55906;52.278;6.808;2023-02-14T12:20:37;103166.13;;;25.10;29.55
68871;BME280;55906;52.278;6.808;2023-02-14T12:23:13;103163.34;;;24.95;29.82
68871;BME280;55906;52.278;6.808;2023-02-14T12:25:44;103156.28;;;25.30;30.11
68871;BME280;55906;52.278;6.808;2023-02-14T12:28:16;103152.69;;;25.34;28.72
68871;BME280;55906;52.278;6.808;2023-02-14T12:30:45;103151.81;;;25.76;29.94
68871;BME280;55906;52.278;6.808;2023-02-14T12:33:16;103145.47;;;26.25;28.46
68871;BME280;55906;52.278;6.808;2023-02-14T12:35:52;103132.84;;;26.48;28.38
68871;BME280;55906;52.278;6.808;2023-02-14T12:38:25;103143.72;;;26.10;28.17
68871;BME280;55906;52.278;6.808;2023-02-14T12:41:03;103138.28;;;26.24;27.61
68871;BME280;55906;52.278;6.808;2023-02-14T12:43:45;103131.03;;;26.47;27.10
68871;BME280;55906;52.278;6.808;2023-02-14T12:46:40;103126.28;;;26.96;26.74
68871;BME280;55906;52.278;6.808;2023-02-14T12:49:28;103122.44;;;27.37;26.74
68871;BME280;55906;52.278;6.808;2023-02-14T12:52:05;103122.25;;;27.64;26.76
68871;BME280;55906;52.278;6.808;2023-02-14T12:54:47;103119.44;;;27.77;26.36
68871;BME280;55906;52.278;6.808;2023-02-14T12:57:27;103107.06;;;27.44;26.21
68871;BME280;55906;52.278;6.808;2023-02-14T13:00:03;103108.28;;;26.98;26.00
68871;BME280;55906;52.278;6.808;2023-02-14T13:03:00;103102.66;;;27.33;25.90
68871;BME280;55906;52.278;6.808;2023-02-14T13:05:36;103093.63;;;27.30;25.93
68871;BME280;55906;52.278;6.808;2023-02-14T13:08:20;103098.41;;;26.88;26.33
68871;BME280;55906;52.278;6.808;2023-02-14T13:10:56;103091.03;;;27.16;26.39
68871;BME280;55906;52.278;6.808;2023-02-14T13:13:31;103093.53;;;27.47;26.06
68871;BME280;55906;52.278;6.808;2023-02-14T13:16:10;103090.44;;;27.89;25.75
68871;BME280;55906;52.278;6.808;2023-02-14T13:18:47;103083.16;;;27.94;24.97
68871;BME280;55906;52.278;6.808;2023-02-14T13:21:18;103079.47;;;28.00;25.67
68871;BME280;55906;52.278;6.808;2023-02-14T13:23:51;103077.00;;;27.79;24.97